sensor_id;sensor_type;location;lat;lon;timestamp;P1;durP1;ratioP1;P2;durP2;ratioP2
5323;SDS011;2684;48.154;11.538;2022-08-19T00:01:13;12.93;;;11.90;;
5323;SDS011;2684;48.154;11.538;2022-08-19T00:03:41;12.63;;;11.70;;
5323;SDS011;2684;48.154;11.538;2022-08-19T00:06:08;12.67;;;11.63;;
5323;SDS011;2684;48.154;11.538;2022-08-19T00:08:35;13.43;;;12.30;;
5323;SDS011;2684;48.154;11.538;2022-08-19T00:11:02;13.37;;;12.03;;
5323;SDS011;2684;48.154;11.538;2022-08-19T00:13:29;12.73;;;11.70;;
5323;SDS011;2684;48.154;11.538;2022-08-19T00:15:56;13.50;;;12.30;;
5323;SDS011;2684;48.154;11.538;2022-08-19T00:18:24;13.60;;;12.50;;
5323;SDS011;2684;48.154;11.538;2022-08-19T00:20:53;13.17;;;12.10;;
5323;SDS011;2684;48.154;11.538;2022-08-19T00:23:20;13.67;;;12.47;;
5323;SDS011;2684;48.154;11.538;2022-08-19T00:25:47;13.33;;;12.20;;
5323;SDS011;2684;48.154;11.538;2022-08-19T00:28:14;23.60;;;13.30;;
5323;SDS011;2684;48.154;11.538;2022-08-19T00:30:41;14.23;;;13.03;;
5323;SDS011;2684;48.154;11.538;2022-08-19T00:33:08;15.13;;;13.77;;
5323;SDS011;2684;48.154;11.538;2022-08-19T00:35:34;14.80;;;13.40;;
5323;SDS011;2684;48.154;11.538;2022-08-19T00:38:04;14.43;;;13.10;;
5323;SDS011;2684;48.154;11.538;2022-08-19T00:40:32;14.20;;;13.00;;
5323;SDS011;2684;48.154;11.538;2022-08-19T00:42:59;15.00;;;13.70;;
5323;SDS011;2684;48.154;11.538;2022-08-19T00:45:26;15.33;;;13.93;;
5323;SDS011;2684;48.154;11.538;2022-08-19T00:47:56;15.63;;;14.13;;
5323;SDS011;2684;48.154;11.538;2022-08-19T00:50:23;14.93;;;13.53;;
5323;SDS011;2684;48.154;11.538;2022-08-19T00:52:50;15.33;;;13.83;;
5323;SDS011;2684;48.154;11.538;2022-08-19T00:55:21;15.20;;;13.80;;
5323;SDS011;2684;48.154;11.538;2022-08-19T00:57:50;15.30;;;13.77;;
5323;SDS011;2684;48.154;11.538;2022-08-19T01:00:21;15.90;;;14.50;;
5323;SDS011;2684;48.154;11.538;2022-08-19T01:02:50;16.13;;;14.47;;
5323;SDS011;2684;48.154;11.538;2022-08-19T01:05:20;15.80;;;14.30;;
5323;SDS011;2684;48.154;11.538;2022-08-19T01:07:52;16.30;;;14.70;;
5323;SDS011;2684;48.154;11.538;2022-08-19T01:10:21;15.30;;;13.90;;
5323;SDS011;2684;48.154;11.538;2022-08-19T01:12:51;15.47;;;13.87;;
5323;SDS011;2684;48.154;11.538;2022-08-19T01:15:19;16.07;;;14.40;;
5323;SDS011;2684;48.154;11.538;2022-08-19T01:17:50;16.90;;;15.10;;
5323;SDS011;2684;48.154;11.538;2022-08-19T01:20:20;16.73;;;14.97;;
5323;SDS011;2684;48.154;11.538;2022-08-19T01:22:51;17.10;;;15.40;;
5323;SDS011;2684;48.154;11.538;2022-08-19T01:25:20;16.67;;;14.97;;
5323;SDS011;2684;48.154;11.538;2022-08-19T01:27:51;17.73;;;15.80;;
5323;SDS011;2684;48.154;11.538;2022-08-19T01:30:19;18.40;;;15.90;;
5323;SDS011;2684;48.154;11.538;2022-08-19T01:32:50;17.67;;;15.87;;
5323;SDS011;2684;48.154;11.538;2022-08-19T01:35:19;17.43;;;15.73;;
5323;SDS011;2684;48.154;11.538;2022-08-19T01:37:49;18.90;;;15.93;;
5323;SDS011;2684;48.154;11.538;2022-08-19T01:40:20;17.97;;;16.07;;
5323;SDS011;2684;48.154;11.538;2022-08-19T01:42:49;18.10;;;16.17;;
5323;SDS011;2684;48.154;11.538;2022-08-19T01:45:17;16.80;;;15.00;;
5323;SDS011;2684;48.154;11.538;2022-08-19T01:47:45;17.40;;;15.60;;
5323;SDS011;2684;48.154;11.538;2022-08-19T01:50:12;17.23;;;15.53;;
5323;SDS011;2684;48.154;11.538;2022-08-19T01:52:39;16.47;;;14.70;;
5323;SDS011;2684;48.154;11.538;2022-08-19T01:55:10;17.57;;;15.73;;
5323;SDS011;2684;48.154;11.538;2022-08-19T01:57:41;16.93;;;15.23;;
5323;SDS011;2684;48.154;11.538;2022-08-19T02:00:12;17.80;;;15.57;;
5323;SDS011;2684;48.154;11.538;2022-08-19T02:02:41;16.70;;;14.90;;
5323;SDS011;2684;48.154;11.538;2022-08-19T02:05:08;16.23;;;14.63;;
5323;SDS011;2684;48.154;11.538;2022-08-19T02:07:36;17.03;;;15.30;;
5323;SDS011;2684;48.154;11.538;2022-08-19T02:10:05;15.87;;;14.30;;
5323;SDS011;2684;48.154;11.538;2022-08-19T02:12:35;16.47;;;14.73;;
5323;SDS011;2684;48.154;11.538;2022-08-19T02:15:03;16.20;;;14.60;;
5323;SDS011;2684;48.154;11.538;2022-08-19T02:17:31;16.37;;;14.47;;
5323;SDS011;2684;48.154;11.538;2022-08-19T02:19:58;15.53;;;14.00;;
5323;SDS011;2684;48.154;11.538;2022-08-19T02:22:25;16.33;;;14.70;;
5323;SDS011;2684;48.154;11.538;2022-08-19T02:24:52;15.50;;;14.00;;
5323;SDS011;2684;48.154;11.538;2022-08-19T02:27:19;15.40;;;14.00;;
5323;SDS011;2684;48.154;11.538;2022-08-19T02:29:49;15.70;;;14.20;;
5323;SDS011;2684;48.154;11.538;2022-08-19T02:32:16;16.33;;;14.77;;
5323;SDS011;2684;48.154;11.538;2022-08-19T02:34:44;16.47;;;14.77;;
5323;SDS011;2684;48.154;11.538;2022-08-19T02:37:11;15.60;;;14.20;;
5323;SDS011;2684;48.154;11.538;2022-08-19T02:39:52;18.73;;;15.77;;
5323;SDS011;2684;48.154;11.538;2022-08-19T02:42:19;15.63;;;14.13;;
5323;SDS011;2684;48.154;11.538;2022-08-19T02:44:46;20.23;;;16.53;;
5323;SDS011;2684;48.154;11.538;2022-08-19T02:47:14;15.37;;;13.80;;
5323;SDS011;2684;48.154;11.538;2022-08-19T02:49:41;15.77;;;14.27;;
5323;SDS011;2684;48.154;11.538;2022-08-19T02:52:08;15.13;;;13.70;;
5323;SDS011;2684;48.154;11.538;2022-08-19T02:54:36;14.83;;;13.50;;
5323;SDS011;2684;48.154;11.538;2022-08-19T02:57:03;16.33;;;14.50;;
5323;SDS011;2684;48.154;11.538;2022-08-19T02:59:30;15.97;;;14.33;;
5323;SDS011;2684;48.154;11.538;2022-08-19T03:01:58;15.13;;;13.63;;
5323;SDS011;2684;48.154;11.538;2022-08-19T03:04:26;15.30;;;13.80;;
5323;SDS011;2684;48.154;11.538;2022-08-19T03:06:53;15.70;;;14.20;;
5323;SDS011;2684;48.154;11.538;2022-08-19T03:09:20;16.03;;;14.43;;
5323;SDS011;2684;48.154;11.538;2022-08-19T03:11:47;15.20;;;13.70;;
5323;SDS011;2684;48.154;11.538;2022-08-19T03:14:15;15.20;;;13.77;;
5323;SDS011;2684;48.154;11.538;2022-08-19T03:16:44;16.67;;;14.87;;
5323;SDS011;2684;48.154;11.538;2022-08-19T03:19:12;15.37;;;13.87;;
5323;SDS011;2684;48.154;11.538;2022-08-19T03:21:41;16.40;;;14.30;;
5323;SDS011;2684;48.154;11.538;2022-08-19T03:24:10;15.10;;;13.60;;
5323;SDS011;2684;48.154;11.538;2022-08-19T03:26:38;17.03;;;15.33;;
5323;SDS011;2684;48.154;11.538;2022-08-19T03:29:06;15.17;;;13.77;;
5323;SDS011;2684;48.154;11.538;2022-08-19T03:31:35;15.37;;;13.97;;
5323;SDS011;2684;48.154;11.538;2022-08-19T03:34:03;13.80;;;12.70;;
5323;SDS011;2684;48.154;11.538;2022-08-19T03:36:30;15.87;;;14.27;;
5323;SDS011;2684;48.154;11.538;2022-08-19T03:38:59;14.10;;;12.90;;
5323;SDS011;2684;48.154;11.538;2022-08-19T03:41:28;17.13;;;13.70;;
5323;SDS011;2684;48.154;11.538;2022-08-19T03:43:56;14.20;;;13.00;;
5323;SDS011;2684;48.154;11.538;2022-08-19T03:46:25;15.40;;;14.00;;
5323;SDS011;2684;48.154;11.538;2022-08-19T03:48:54;14.87;;;13.47;;
5323;SDS011;2684;48.154;11.538;2022-08-19T03:51:23;16.90;;;15.20;;
5323;SDS011;2684;48.154;11.538;2022-08-19T03:53:51;15.83;;;14.30;;
5323;SDS011;2684;48.154;11.538;2022-08-19T03:56:19;15.07;;;13.70;;
5323;SDS011;2684;48.154;11.538;2022-08-19T03:58:47;16.23;;;14.67;;
5323;SDS011;2684;48.154;11.538;2022-08-19T04:01:15;16.47;;;14.83;;
5323;SDS011;2684;48.154;11.538;2022-08-19T04:03:45;16.03;;;14.50;;
5323;SDS011;2684;48.154;11.538;2022-08-19T04:06:13;15.97;;;14.47;;
5323;SDS011;2684;48.154;11.538;2022-08-19T04:08:42;15.77;;;14.33;;
5323;SDS011;2684;48.154;11.538;2022-08-19T04:11:12;15.70;;;14.30;;
5323;SDS011;2684;48.154;11.538;2022-08-19T04:13:42;16.30;;;14.70;;
5323;SDS011;2684;48.154;11.538;2022-08-19T04:16:09;16.70;;;14.90;;
5323;SDS011;2684;48.154;11.538;2022-08-19T04:18:37;18.13;;;15.60;;
5323;SDS011;2684;48.154;11.538;2022-08-19T04:21:05;16.43;;;14.83;;
5323;SDS011;2684;48.154;11.538;2022-08-19T04:23:34;16.47;;;14.87;;
5323;SDS011;2684;48.154;11.538;2022-08-19T04:26:02;17.03;;;15.33;;
5323;SDS011;2684;48.154;11.538;2022-08-19T04:28:29;18.10;;;16.23;;
5323;SDS011;2684;48.154;11.538;2022-08-19T04:30:57;17.80;;;16.00;;
5323;SDS011;2684;48.154;11.538;2022-08-19T04:33:24;17.00;;;15.30;;
5323;SDS011;2684;48.154;11.538;2022-08-19T04:35:53;17.10;;;15.50;;
5323;SDS011;2684;48.154;11.538;2022-08-19T04:38:23;17.30;;;15.60;;
5323;SDS011;2684;48.154;11.538;2022-08-19T04:40:51;16.70;;;15.10;;
5323;SDS011;2684;48.154;11.538;2022-08-19T04:43:36;17.53;;;15.60;;
5323;SDS011;2684;48.154;11.538;2022-08-19T04:46:06;17.20;;;15.50;;
5323;SDS011;2684;48.154;11.538;2022-08-19T04:48:33;20.17;;;16.20;;
5323;SDS011;2684;48.154;11.538;2022-08-19T04:51:00;18.23;;;16.23;;
5323;SDS011;2684;48.154;11.538;2022-08-19T04:53:32;17.97;;;16.17;;
5323;SDS011;2684;48.154;11.538;2022-08-19T04:56:03;17.93;;;16.00;;
5323;SDS011;2684;48.154;11.538;2022-08-19T04:58:33;17.43;;;15.73;;
5323;SDS011;2684;48.154;11.538;2022-08-19T05:01:01;18.43;;;16.53;;
5323;SDS011;2684;48.154;11.538;2022-08-19T05:03:29;17.20;;;15.40;;
5323;SDS011;2684;48.154;11.538;2022-08-19T05:05:58;18.77;;;16.77;;
5323;SDS011;2684;48.154;11.538;2022-08-19T05:08:32;17.93;;;16.03;;
5323;SDS011;2684;48.154;11.538;2022-08-19T05:11:00;19.00;;;15.70;;
5323;SDS011;2684;48.154;11.538;2022-08-19T05:13:27;17.13;;;15.43;;
5323;SDS011;2684;48.154;11.538;2022-08-19T05:15:55;18.43;;;16.33;;
5323;SDS011;2684;48.154;11.538;2022-08-19T05:18:23;17.40;;;15.67;;
5323;SDS011;2684;48.154;11.538;2022-08-19T05:21:15;17.37;;;15.57;;
5323;SDS011;2684;48.154;11.538;2022-08-19T05:24:00;18.67;;;16.63;;
5323;SDS011;2684;48.154;11.538;2022-08-19T05:26:28;19.23;;;17.30;;
5323;SDS011;2684;48.154;11.538;2022-08-19T05:28:55;20.40;;;16.27;;
5323;SDS011;2684;48.154;11.538;2022-08-19T05:31:21;17.50;;;15.77;;
5323;SDS011;2684;48.154;11.538;2022-08-19T05:33:48;19.10;;;16.77;;
5323;SDS011;2684;48.154;11.538;2022-08-19T05:36:17;20.20;;;16.37;;
5323;SDS011;2684;48.154;11.538;2022-08-19T05:38:44;18.90;;;16.90;;
5323;SDS011;2684;48.154;11.538;2022-08-19T05:41:13;17.40;;;15.70;;
5323;SDS011;2684;48.154;11.538;2022-08-19T05:43:41;18.43;;;15.70;;
5323;SDS011;2684;48.154;11.538;2022-08-19T05:46:08;17.70;;;15.80;;
5323;SDS011;2684;48.154;11.538;2022-08-19T05:48:43;18.50;;;16.60;;
5323;SDS011;2684;48.154;11.538;2022-08-19T05:51:10;18.43;;;16.53;;
5323;SDS011;2684;48.154;11.538;2022-08-19T05:53:38;19.03;;;16.90;;
5323;SDS011;2684;48.154;11.538;2022-08-19T05:56:05;19.80;;;17.37;;
5323;SDS011;2684;48.154;11.538;2022-08-19T05:58:34;18.73;;;16.73;;
5323;SDS011;2684;48.154;11.538;2022-08-19T06:01:01;18.97;;;17.10;;
5323;SDS011;2684;48.154;11.538;2022-08-19T06:03:31;19.00;;;17.03;;
5323;SDS011;2684;48.154;11.538;2022-08-19T06:05:59;18.63;;;16.83;;
5323;SDS011;2684;48.154;11.538;2022-08-19T06:08:27;19.73;;;17.63;;
5323;SDS011;2684;48.154;11.538;2022-08-19T06:10:56;24.57;;;18.73;;
5323;SDS011;2684;48.154;11.538;2022-08-19T06:13:23;24.60;;;18.30;;
5323;SDS011;2684;48.154;11.538;2022-08-19T06:15:50;21.87;;;18.43;;
5323;SDS011;2684;48.154;11.538;2022-08-19T06:18:17;20.33;;;18.13;;
5323;SDS011;2684;48.154;11.538;2022-08-19T06:20:44;28.43;;;18.67;;
5323;SDS011;2684;48.154;11.538;2022-08-19T06:23:11;21.03;;;18.80;;
5323;SDS011;2684;48.154;11.538;2022-08-19T06:25:38;21.13;;;18.83;;
5323;SDS011;2684;48.154;11.538;2022-08-19T06:28:07;21.20;;;18.33;;
5323;SDS011;2684;48.154;11.538;2022-08-19T06:30:35;22.40;;;18.00;;
5323;SDS011;2684;48.154;11.538;2022-08-19T06:33:02;22.30;;;18.90;;
5323;SDS011;2684;48.154;11.538;2022-08-19T06:35:29;51.30;;;37.63;;
5323;SDS011;2684;48.154;11.538;2022-08-19T06:37:56;26.50;;;18.80;;
5323;SDS011;2684;48.154;11.538;2022-08-19T06:40:23;23.20;;;18.03;;
5323;SDS011;2684;48.154;11.538;2022-08-19T06:42:52;23.47;;;18.90;;
5323;SDS011;2684;48.154;11.538;2022-08-19T06:45:20;21.93;;;18.97;;
5323;SDS011;2684;48.154;11.538;2022-08-19T06:47:47;25.70;;;19.70;;
5323;SDS011;2684;48.154;11.538;2022-08-19T06:50:14;21.30;;;18.93;;
5323;SDS011;2684;48.154;11.538;2022-08-19T06:52:41;26.60;;;19.80;;
5323;SDS011;2684;48.154;11.538;2022-08-19T06:55:08;25.23;;;18.70;;
5323;SDS011;2684;48.154;11.538;2022-08-19T06:57:35;31.33;;;19.97;;
5323;SDS011;2684;48.154;11.538;2022-08-19T07:00:02;21.70;;;18.90;;
5323;SDS011;2684;48.154;11.538;2022-08-19T07:02:33;24.10;;;18.50;;
5323;SDS011;2684;48.154;11.538;2022-08-19T07:05:02;24.60;;;18.63;;
5323;SDS011;2684;48.154;11.538;2022-08-19T07:07:30;23.90;;;18.83;;
5323;SDS011;2684;48.154;11.538;2022-08-19T07:09:58;26.20;;;19.70;;
5323;SDS011;2684;48.154;11.538;2022-08-19T07:12:25;21.17;;;18.73;;
5323;SDS011;2684;48.154;11.538;2022-08-19T07:14:53;25.63;;;19.50;;
5323;SDS011;2684;48.154;11.538;2022-08-19T07:17:20;23.17;;;19.60;;
5323;SDS011;2684;48.154;11.538;2022-08-19T07:19:49;24.80;;;20.47;;
5323;SDS011;2684;48.154;11.538;2022-08-19T07:22:15;21.23;;;18.80;;
5323;SDS011;2684;48.154;11.538;2022-08-19T07:24:43;27.73;;;21.23;;
5323;SDS011;2684;48.154;11.538;2022-08-19T07:27:10;32.17;;;20.10;;
5323;SDS011;2684;48.154;11.538;2022-08-19T07:29:36;27.97;;;22.83;;
5323;SDS011;2684;48.154;11.538;2022-08-19T07:32:04;29.87;;;22.27;;
5323;SDS011;2684;48.154;11.538;2022-08-19T07:34:33;31.57;;;22.53;;
5323;SDS011;2684;48.154;11.538;2022-08-19T07:37:03;29.90;;;23.37;;
5323;SDS011;2684;48.154;11.538;2022-08-19T07:39:32;29.00;;;22.20;;
5323;SDS011;2684;48.154;11.538;2022-08-19T07:42:01;28.27;;;22.10;;
5323;SDS011;2684;48.154;11.538;2022-08-19T07:44:31;31.30;;;23.37;;
5323;SDS011;2684;48.154;11.538;2022-08-19T07:46:59;30.73;;;22.50;;
5323;SDS011;2684;48.154;11.538;2022-08-19T07:49:27;29.50;;;23.00;;
5323;SDS011;2684;48.154;11.538;2022-08-19T07:51:55;29.90;;;23.40;;
5323;SDS011;2684;48.154;11.538;2022-08-19T07:54:26;28.43;;;22.40;;
5323;SDS011;2684;48.154;11.538;2022-08-19T07:56:53;30.50;;;22.73;;
5323;SDS011;2684;48.154;11.538;2022-08-19T07:59:21;30.97;;;22.70;;
5323;SDS011;2684;48.154;11.538;2022-08-19T08:01:49;31.10;;;23.27;;
5323;SDS011;2684;48.154;11.538;2022-08-19T08:04:18;31.47;;;22.53;;
5323;SDS011;2684;48.154;11.538;2022-08-19T08:07:03;30.27;;;23.50;;
5323;SDS011;2684;48.154;11.538;2022-08-19T08:09:49;35.63;;;23.00;;
5323;SDS011;2684;48.154;11.538;2022-08-19T08:12:17;32.20;;;23.83;;
5323;SDS011;2684;48.154;11.538;2022-08-19T08:14:47;34.73;;;23.90;;
5323;SDS011;2684;48.154;11.538;2022-08-19T08:17:17;32.13;;;23.73;;
5323;SDS011;2684;48.154;11.538;2022-08-19T08:19:45;31.27;;;23.93;;
5323;SDS011;2684;48.154;11.538;2022-08-19T08:22:14;36.90;;;26.63;;
5323;SDS011;2684;48.154;11.538;2022-08-19T08:25:12;33.23;;;23.60;;
5323;SDS011;2684;48.154;11.538;2022-08-19T08:27:41;33.73;;;24.23;;
5323;SDS011;2684;48.154;11.538;2022-08-19T08:30:11;37.30;;;25.50;;
5323;SDS011;2684;48.154;11.538;2022-08-19T08:32:48;38.60;;;25.67;;
5323;SDS011;2684;48.154;11.538;2022-08-19T08:35:17;35.10;;;24.47;;
5323;SDS011;2684;48.154;11.538;2022-08-19T08:37:46;35.40;;;25.30;;
5323;SDS011;2684;48.154;11.538;2022-08-19T08:40:21;35.20;;;25.47;;
5323;SDS011;2684;48.154;11.538;2022-08-19T08:42:55;36.30;;;25.53;;
5323;SDS011;2684;48.154;11.538;2022-08-19T08:45:29;38.57;;;26.50;;
5323;SDS011;2684;48.154;11.538;2022-08-19T08:47:57;43.93;;;24.83;;
5323;SDS011;2684;48.154;11.538;2022-08-19T08:50:35;39.57;;;27.23;;
5323;SDS011;2684;48.154;11.538;2022-08-19T08:53:08;43.47;;;25.27;;
5323;SDS011;2684;48.154;11.538;2022-08-19T08:55:38;36.30;;;25.10;;
5323;SDS011;2684;48.154;11.538;2022-08-19T08:58:09;38.77;;;25.73;;
5323;SDS011;2684;48.154;11.538;2022-08-19T09:00:43;38.83;;;27.00;;
5323;SDS011;2684;48.154;11.538;2022-08-19T09:03:14;41.80;;;27.30;;
5323;SDS011;2684;48.154;11.538;2022-08-19T09:05:45;38.13;;;26.30;;
5323;SDS011;2684;48.154;11.538;2022-08-19T09:08:23;39.23;;;26.17;;
5323;SDS011;2684;48.154;11.538;2022-08-19T09:11:00;44.20;;;29.27;;
5323;SDS011;2684;48.154;11.538;2022-08-19T09:13:31;39.10;;;26.50;;
5323;SDS011;2684;48.154;11.538;2022-08-19T09:16:04;43.47;;;27.30;;
5323;SDS011;2684;48.154;11.538;2022-08-19T09:18:38;43.97;;;25.30;;
5323;SDS011;2684;48.154;11.538;2022-08-19T09:21:06;39.03;;;26.77;;
5323;SDS011;2684;48.154;11.538;2022-08-19T09:23:34;38.33;;;25.73;;
5323;SDS011;2684;48.154;11.538;2022-08-19T09:26:04;40.83;;;25.33;;
5323;SDS011;2684;48.154;11.538;2022-08-19T09:28:33;44.00;;;25.33;;
5323;SDS011;2684;48.154;11.538;2022-08-19T09:31:02;36.10;;;24.10;;
5323;SDS011;2684;48.154;11.538;2022-08-19T09:33:29;38.63;;;24.23;;
5323;SDS011;2684;48.154;11.538;2022-08-19T09:36:01;33.00;;;23.67;;
5323;SDS011;2684;48.154;11.538;2022-08-19T09:38:29;32.73;;;23.17;;
5323;SDS011;2684;48.154;11.538;2022-08-19T09:41:02;36.33;;;22.90;;
5323;SDS011;2684;48.154;11.538;2022-08-19T09:43:30;39.43;;;22.10;;
5323;SDS011;2684;48.154;11.538;2022-08-19T09:45:58;33.13;;;23.23;;
5323;SDS011;2684;48.154;11.538;2022-08-19T09:48:26;35.90;;;22.53;;
5323;SDS011;2684;48.154;11.538;2022-08-19T09:50:53;34.43;;;23.30;;
5323;SDS011;2684;48.154;11.538;2022-08-19T09:53:20;35.93;;;23.20;;
5323;SDS011;2684;48.154;11.538;2022-08-19T09:55:48;45.43;;;23.50;;
5323;SDS011;2684;48.154;11.538;2022-08-19T09:58:16;28.17;;;21.00;;
5323;SDS011;2684;48.154;11.538;2022-08-19T10:00:43;33.33;;;23.37;;
5323;SDS011;2684;48.154;11.538;2022-08-19T10:03:11;30.47;;;22.20;;
5323;SDS011;2684;48.154;11.538;2022-08-19T10:05:37;28.03;;;21.47;;
5323;SDS011;2684;48.154;11.538;2022-08-19T10:08:17;26.40;;;20.63;;
5323;SDS011;2684;48.154;11.538;2022-08-19T10:10:46;28.73;;;21.07;;
5323;SDS011;2684;48.154;11.538;2022-08-19T10:13:14;31.50;;;22.30;;
5323;SDS011;2684;48.154;11.538;2022-08-19T10:15:46;31.17;;;23.10;;
5323;SDS011;2684;48.154;11.538;2022-08-19T10:18:15;31.43;;;23.07;;
5323;SDS011;2684;48.154;11.538;2022-08-19T10:20:43;32.67;;;22.00;;
5323;SDS011;2684;48.154;11.538;2022-08-19T10:23:10;31.30;;;23.57;;
5323;SDS011;2684;48.154;11.538;2022-08-19T10:25:37;28.73;;;21.43;;
5323;SDS011;2684;48.154;11.538;2022-08-19T10:28:04;28.87;;;21.03;;
5323;SDS011;2684;48.154;11.538;2022-08-19T10:30:33;26.87;;;19.60;;
5323;SDS011;2684;48.154;11.538;2022-08-19T10:33:01;32.57;;;20.60;;
5323;SDS011;2684;48.154;11.538;2022-08-19T10:35:28;24.83;;;20.20;;
5323;SDS011;2684;48.154;11.538;2022-08-19T10:37:55;24.40;;;20.23;;
5323;SDS011;2684;48.154;11.538;2022-08-19T10:40:24;25.47;;;20.40;;
5323;SDS011;2684;48.154;11.538;2022-08-19T10:42:51;25.23;;;19.87;;
5323;SDS011;2684;48.154;11.538;2022-08-19T10:45:18;22.50;;;19.80;;
5323;SDS011;2684;48.154;11.538;2022-08-19T10:47:48;24.50;;;20.47;;
5323;SDS011;2684;48.154;11.538;2022-08-19T10:50:15;24.50;;;20.27;;
5323;SDS011;2684;48.154;11.538;2022-08-19T10:53:02;24.63;;;20.67;;
5323;SDS011;2684;48.154;11.538;2022-08-19T10:55:30;24.57;;;20.70;;
5323;SDS011;2684;48.154;11.538;2022-08-19T10:58:16;21.00;;;18.20;;
5323;SDS011;2684;48.154;11.538;2022-08-19T11:00:50;24.30;;;19.60;;
5323;SDS011;2684;48.154;11.538;2022-08-19T11:03:19;21.93;;;19.57;;
5323;SDS011;2684;48.154;11.538;2022-08-19T11:05:51;21.70;;;19.40;;
5323;SDS011;2684;48.154;11.538;2022-08-19T11:08:24;21.77;;;18.93;;
5323;SDS011;2684;48.154;11.538;2022-08-19T11:10:52;21.73;;;19.33;;
5323;SDS011;2684;48.154;11.538;2022-08-19T11:13:20;21.63;;;19.30;;
5323;SDS011;2684;48.154;11.538;2022-08-19T11:15:55;21.60;;;19.30;;
5323;SDS011;2684;48.154;11.538;2022-08-19T11:18:24;23.60;;;17.97;;
5323;SDS011;2684;48.154;11.538;2022-08-19T11:20:51;20.20;;;18.10;;
5323;SDS011;2684;48.154;11.538;2022-08-19T11:23:18;19.87;;;17.83;;
5323;SDS011;2684;48.154;11.538;2022-08-19T11:25:45;18.60;;;16.70;;
5323;SDS011;2684;48.154;11.538;2022-08-19T11:28:12;16.83;;;15.23;;
5323;SDS011;2684;48.154;11.538;2022-08-19T11:30:39;15.30;;;14.00;;
5323;SDS011;2684;48.154;11.538;2022-08-19T11:33:06;14.73;;;13.50;;
5323;SDS011;2684;48.154;11.538;2022-08-19T11:35:34;14.47;;;13.37;;
5323;SDS011;2684;48.154;11.538;2022-08-19T11:38:05;14.57;;;13.40;;
5323;SDS011;2684;48.154;11.538;2022-08-19T11:40:32;13.90;;;12.80;;
5323;SDS011;2684;48.154;11.538;2022-08-19T11:42:59;14.83;;;13.00;;
5323;SDS011;2684;48.154;11.538;2022-08-19T11:45:26;13.80;;;12.90;;
5323;SDS011;2684;48.154;11.538;2022-08-19T11:47:54;13.60;;;12.50;;
5323;SDS011;2684;48.154;11.538;2022-08-19T11:50:23;14.03;;;13.03;;
5323;SDS011;2684;48.154;11.538;2022-08-19T11:52:54;13.47;;;12.47;;
5323;SDS011;2684;48.154;11.538;2022-08-19T11:55:21;13.70;;;12.70;;
5323;SDS011;2684;48.154;11.538;2022-08-19T11:57:49;13.50;;;12.60;;
5323;SDS011;2684;48.154;11.538;2022-08-19T12:00:16;13.00;;;12.10;;
5323;SDS011;2684;48.154;11.538;2022-08-19T12:02:43;12.60;;;11.80;;
5323;SDS011;2684;48.154;11.538;2022-08-19T12:05:10;12.80;;;12.00;;
5323;SDS011;2684;48.154;11.538;2022-08-19T12:07:37;13.40;;;12.50;;
5323;SDS011;2684;48.154;11.538;2022-08-19T12:10:06;12.90;;;12.10;;
5323;SDS011;2684;48.154;11.538;2022-08-19T12:12:33;12.57;;;11.77;;
5323;SDS011;2684;48.154;11.538;2022-08-19T12:15:00;12.53;;;11.73;;
5323;SDS011;2684;48.154;11.538;2022-08-19T12:17:27;13.13;;;12.23;;
5323;SDS011;2684;48.154;11.538;2022-08-19T12:19:55;12.57;;;11.73;;
5323;SDS011;2684;48.154;11.538;2022-08-19T12:22:22;12.80;;;12.00;;
5323;SDS011;2684;48.154;11.538;2022-08-19T12:24:49;12.23;;;11.33;;
5323;SDS011;2684;48.154;11.538;2022-08-19T12:27:19;12.90;;;12.00;;
5323;SDS011;2684;48.154;11.538;2022-08-19T12:29:46;12.90;;;12.00;;
5323;SDS011;2684;48.154;11.538;2022-08-19T12:32:13;12.50;;;11.70;;
5323;SDS011;2684;48.154;11.538;2022-08-19T12:34:41;12.63;;;11.80;;
5323;SDS011;2684;48.154;11.538;2022-08-19T12:37:09;12.40;;;11.50;;
5323;SDS011;2684;48.154;11.538;2022-08-19T12:39:37;12.67;;;11.83;;
5323;SDS011;2684;48.154;11.538;2022-08-19T12:42:06;11.70;;;11.00;;
5323;SDS011;2684;48.154;11.538;2022-08-19T12:44:35;12.10;;;11.30;;
5323;SDS011;2684;48.154;11.538;2022-08-19T12:47:02;12.40;;;11.60;;
5323;SDS011;2684;48.154;11.538;2022-08-19T12:49:30;12.17;;;11.47;;
5323;SDS011;2684;48.154;11.538;2022-08-19T12:51:58;12.10;;;11.30;;
5323;SDS011;2684;48.154;11.538;2022-08-19T12:54:25;12.03;;;11.23;;
5323;SDS011;2684;48.154;11.538;2022-08-19T12:56:52;12.70;;;11.90;;
5323;SDS011;2684;48.154;11.538;2022-08-19T12:59:19;12.20;;;11.40;;
5323;SDS011;2684;48.154;11.538;2022-08-19T13:01:47;12.90;;;12.10;;
5323;SDS011;2684;48.154;11.538;2022-08-19T13:04:14;12.63;;;11.83;;
5323;SDS011;2684;48.154;11.538;2022-08-19T13:06:41;13.17;;;12.27;;
5323;SDS011;2684;48.154;11.538;2022-08-19T13:09:08;13.17;;;12.27;;
5323;SDS011;2684;48.154;11.538;2022-08-19T13:11:36;12.67;;;11.87;;
5323;SDS011;2684;48.154;11.538;2022-08-19T13:14:04;12.97;;;12.17;;
5323;SDS011;2684;48.154;11.538;2022-08-19T13:16:31;12.47;;;11.67;;
5323;SDS011;2684;48.154;11.538;2022-08-19T13:18:59;12.23;;;11.43;;
5323;SDS011;2684;48.154;11.538;2022-08-19T13:21:27;12.77;;;11.97;;
5323;SDS011;2684;48.154;11.538;2022-08-19T13:23:55;13.30;;;12.30;;
5323;SDS011;2684;48.154;11.538;2022-08-19T13:26:23;11.70;;;11.00;;
5323;SDS011;2684;48.154;11.538;2022-08-19T13:28:50;12.47;;;11.67;;
5323;SDS011;2684;48.154;11.538;2022-08-19T13:31:35;12.43;;;11.63;;
5323;SDS011;2684;48.154;11.538;2022-08-19T13:34:28;12.80;;;12.00;;
5323;SDS011;2684;48.154;11.538;2022-08-19T13:36:58;12.67;;;11.87;;
5323;SDS011;2684;48.154;11.538;2022-08-19T13:39:28;13.10;;;12.20;;
5323;SDS011;2684;48.154;11.538;2022-08-19T13:41:55;13.03;;;12.13;;
5323;SDS011;2684;48.154;11.538;2022-08-19T13:44:23;13.63;;;12.63;;
5323;SDS011;2684;48.154;11.538;2022-08-19T13:46:50;13.07;;;12.17;;
5323;SDS011;2684;48.154;11.538;2022-08-19T13:49:17;13.63;;;12.63;;
5323;SDS011;2684;48.154;11.538;2022-08-19T13:51:46;13.10;;;12.20;;
5323;SDS011;2684;48.154;11.538;2022-08-19T13:54:13;12.53;;;11.73;;
5323;SDS011;2684;48.154;11.538;2022-08-19T13:56:40;13.40;;;12.40;;
5323;SDS011;2684;48.154;11.538;2022-08-19T13:59:09;13.40;;;12.50;;
5323;SDS011;2684;48.154;11.538;2022-08-19T14:01:36;13.63;;;12.53;;
5323;SDS011;2684;48.154;11.538;2022-08-19T14:04:03;14.10;;;13.10;;
5323;SDS011;2684;48.154;11.538;2022-08-19T14:06:31;14.00;;;13.00;;
5323;SDS011;2684;48.154;11.538;2022-08-19T14:08:59;13.33;;;12.43;;
5323;SDS011;2684;48.154;11.538;2022-08-19T14:11:27;14.23;;;13.13;;
5323;SDS011;2684;48.154;11.538;2022-08-19T14:13:54;13.30;;;12.40;;
5323;SDS011;2684;48.154;11.538;2022-08-19T14:16:20;13.40;;;12.50;;
5323;SDS011;2684;48.154;11.538;2022-08-19T14:18:47;13.90;;;12.80;;
5323;SDS011;2684;48.154;11.538;2022-08-19T14:21:15;14.07;;;12.93;;
5323;SDS011;2684;48.154;11.538;2022-08-19T14:23:43;13.60;;;12.70;;
5323;SDS011;2684;48.154;11.538;2022-08-19T14:26:12;13.30;;;12.20;;
5323;SDS011;2684;48.154;11.538;2022-08-19T14:28:41;13.83;;;12.93;;
5323;SDS011;2684;48.154;11.538;2022-08-19T14:34:30;13.73;;;12.73;;
5323;SDS011;2684;48.154;11.538;2022-08-19T14:36:58;14.50;;;13.20;;
5323;SDS011;2684;48.154;11.538;2022-08-19T14:39:26;14.13;;;13.03;;
5323;SDS011;2684;48.154;11.538;2022-08-19T14:41:54;13.87;;;12.87;;
5323;SDS011;2684;48.154;11.538;2022-08-19T14:44:23;13.40;;;12.50;;
5323;SDS011;2684;48.154;11.538;2022-08-19T14:46:50;13.33;;;12.33;;